sensor_id;sensor_type;location;lat;lon;timestamp;pressure;altitude;pressure_sealevel;temperature;humidity
25350;BME280;13302;48.796;11.978;2023-02-20T00:01:28;97756.03;;;10.47;37.11
25350;BME280;13302;48.796;11.978;2023-02-20T00:04:15;97752.81;;;10.45;37.05
25350;BME280;13302;48.796;11.978;2023-02-20T00:07:02;97756.72;;;10.44;37.25
25350;BME280;13302;48.796;11.978;2023-02-20T00:09:49;97748.72;;;10.43;37.25
25350;BME280;13302;48.796;11.978;2023-02-20T00:12:37;97753.78;;;10.41;37.68
25350;BME280;13302;48.796;11.978;2023-02-20T00:15:24;97757.38;;;10.41;37.67
25350;BME280;13302;48.796;11.978;2023-02-20T00:18:11;97755.75;;;10.40;37.45
25350;BME280;13302;48.796;11.978;2023-02-20T00:20:58;97756.88;;;10.39;37.60
25350;BME280;13302;48.796;11.978;2023-02-20T00:23:45;97764.84;;;10.41;37.36
25350;BME280;13302;48.796;11.978;2023-02-20T00:26:32;97760.13;;;10.41;37.46
25350;BME280;13302;48.796;11.978;2023-02-20T00:29:23;97751.03;;;10.41;37.47
25350;BME280;13302;48.796;11.978;2023-02-20T00:32:11;97760.44;;;10.40;37.63
25350;BME280;13302;48.796;11.978;2023-02-20T00:34:59;97757.69;;;10.40;37.51
25350;BME280;13302;48.796;11.978;2023-02-20T00:37:46;97750.53;;;10.39;37.76
25350;BME280;13302;48.796;11.978;2023-02-20T00:40:34;97753.28;;;10.39;37.43
25350;BME280;13302;48.796;11.978;2023-02-20T00:43:21;97743.06;;;10.39;37.46
25350;BME280;13302;48.796;11.978;2023-02-20T00:46:12;97748.09;;;10.37;37.42
25350;BME280;13302;48.796;11.978;2023-02-20T00:49:01;97748.91;;;10.38;37.38
25350;BME280;13302;48.796;11.978;2023-02-20T00:52:06;97744.84;;;10.35;37.72
25350;BME280;13302;48.796;11.978;2023-02-20T00:54:54;97748.75;;;10.34;37.85
25350;BME280;13302;48.796;11.978;2023-02-20T00:57:41;97754.63;;;10.33;37.70
25350;BME280;13302;48.796;11.978;2023-02-20T01:00:28;97745.50;;;10.32;37.60
25350;BME280;13302;48.796;11.978;2023-02-20T01:03:16;97747.47;;;10.32;37.44
25350;BME280;13302;48.796;11.978;2023-02-20T01:06:03;97747.78;;;10.30;37.35
25350;BME280;13302;48.796;11.978;2023-02-20T01:08:50;97752.16;;;10.31;37.42
25350;BME280;13302;48.796;11.978;2023-02-20T01:11:43;97753.31;;;10.30;37.40
25350;BME280;13302;48.796;11.978;2023-02-20T01:14:30;97748.28;;;10.32;37.48
25350;BME280;13302;48.796;11.978;2023-02-20T01:17:20;97744.69;;;10.32;37.39
25350;BME280;13302;48.796;11.978;2023-02-20T01:20:08;97747.78;;;10.30;37.61
25350;BME280;13302;48.796;11.978;2023-02-20T01:22:55;97746.97;;;10.30;37.46
25350;BME280;13302;48.796;11.978;2023-02-20T01:25:43;97750.53;;;10.30;37.78
25350;BME280;13302;48.796;11.978;2023-02-20T01:28:30;97748.94;;;10.29;37.60
25350;BME280;13302;48.796;11.978;2023-02-20T01:31:17;97742.25;;;10.30;37.77
25350;BME280;13302;48.796;11.978;2023-02-20T01:34:04;97740.31;;;10.31;37.72
25350;BME280;13302;48.796;11.978;2023-02-20T01:36:53;97736.72;;;10.30;37.80
25350;BME280;13302;48.796;11.978;2023-02-20T01:39:41;97726.16;;;10.32;37.58
25350;BME280;13302;48.796;11.978;2023-02-20T01:42:30;97731.69;;;10.32;37.63
25350;BME280;13302;48.796;11.978;2023-02-20T01:48:26;97729.59;;;10.29;37.73
25350;BME280;13302;48.796;11.978;2023-02-20T01:51:13;97720.94;;;10.31;37.87
25350;BME280;13302;48.796;11.978;2023-02-20T01:54:03;97726.81;;;10.29;37.93
25350;BME280;13302;48.796;11.978;2023-02-20T01:56:56;97736.72;;;10.30;37.83
25350;BME280;13302;48.796;11.978;2023-02-20T01:59:45;97746.66;;;10.31;37.58
25350;BME280;13302;48.796;11.978;2023-02-20T02:02:34;97742.75;;;10.32;37.98
25350;BME280;13302;48.796;11.978;2023-02-20T02:05:25;97742.41;;;10.34;37.71
25350;BME280;13302;48.796;11.978;2023-02-20T02:08:15;97748.75;;;10.34;37.49
25350;BME280;13302;48.796;11.978;2023-02-20T02:11:08;97744.38;;;10.33;37.66
25350;BME280;13302;48.796;11.978;2023-02-20T02:13:55;97728.59;;;10.34;37.62
25350;BME280;13302;48.796;11.978;2023-02-20T02:16:52;97728.13;;;10.32;37.53
25350;BME280;13302;48.796;11.978;2023-02-20T02:20:07;97728.94;;;10.32;37.54
25350;BME280;13302;48.796;11.978;2023-02-20T02:23:15;97724.53;;;10.31;37.46
25350;BME280;13302;48.796;11.978;2023-02-20T02:29:23;97714.47;;;10.27;37.67
25350;BME280;13302;48.796;11.978;2023-02-20T02:38:17;97722.75;;;10.18;37.85
25350;BME280;13302;48.796;11.978;2023-02-20T02:47:02;97711.56;;;10.14;37.88
25350;BME280;13302;48.796;11.978;2023-02-20T02:50:05;97709.63;;;10.15;37.82
25350;BME280;13302;48.796;11.978;2023-02-20T02:52:54;97711.56;;;10.14;37.59
25350;BME280;13302;48.796;11.978;2023-02-20T02:55:41;97711.88;;;10.13;37.94
25350;BME280;13302;48.796;11.978;2023-02-20T02:58:28;97697.28;;;10.12;37.73
25350;BME280;13302;48.796;11.978;2023-02-20T03:01:17;97696.78;;;10.10;37.70
25350;BME280;13302;48.796;11.978;2023-02-20T03:04:11;97695.50;;;10.08;38.03
25350;BME280;13302;48.796;11.978;2023-02-20T03:07:04;97694.31;;;10.09;38.02
25350;BME280;13302;48.796;11.978;2023-02-20T03:09:57;97699.84;;;10.09;37.80
25350;BME280;13302;48.796;11.978;2023-02-20T03:12:49;97687.22;;;10.08;37.82
25350;BME280;13302;48.796;11.978;2023-02-20T03:15:49;97694.69;;;10.07;37.74
25350;BME280;13302;48.796;11.978;2023-02-20T03:18:39;97699.38;;;10.07;37.72
25350;BME280;13302;48.796;11.978;2023-02-20T03:21:27;97709.78;;;10.10;37.92
25350;BME280;13302;48.796;11.978;2023-02-20T03:24:18;97702.31;;;10.10;37.88
25350;BME280;13302;48.796;11.978;2023-02-20T03:27:06;97703.94;;;10.11;37.86
25350;BME280;13302;48.796;11.978;2023-02-20T03:29:56;97713.66;;;10.09;37.78
25350;BME280;13302;48.796;11.978;2023-02-20T03:32:47;97704.25;;;10.10;37.54
25350;BME280;13302;48.796;11.978;2023-02-20T03:35:54;97693.88;;;10.07;37.65
25350;BME280;13302;48.796;11.978;2023-02-20T03:39:06;97696.63;;;10.07;37.62
25350;BME280;13302;48.796;11.978;2023-02-20T03:42:14;97689.97;;;10.08;37.61
25350;BME280;13302;48.796;11.978;2023-02-20T03:45:29;97702.63;;;10.09;37.64
25350;BME280;13302;48.796;11.978;2023-02-20T03:48:35;97702.97;;;10.07;37.81
25350;BME280;13302;48.796;11.978;2023-02-20T03:51:26;97706.84;;;10.06;37.57
25350;BME280;13302;48.796;11.978;2023-02-20T03:54:19;97704.41;;;10.05;37.50
25350;BME280;13302;48.796;11.978;2023-02-20T03:57:12;97709.47;;;10.03;37.53
25350;BME280;13302;48.796;11.978;2023-02-20T04:00:26;97713.50;;;10.05;37.64
25350;BME280;13302;48.796;11.978;2023-02-20T04:03:20;97712.38;;;10.06;37.47
25350;BME280;13302;48.796;11.978;2023-02-20T04:06:11;97712.88;;;10.08;37.38
25350;BME280;13302;48.796;11.978;2023-02-20T04:09:04;97714.84;;;10.08;37.58
25350;BME280;13302;48.796;11.978;2023-02-20T04:11:59;97712.06;;;10.08;37.49
25350;BME280;13302;48.796;11.978;2023-02-20T04:14:52;97720.81;;;10.10;37.62
25350;BME280;13302;48.796;11.978;2023-02-20T04:17:50;97727.97;;;10.11;37.33
25350;BME280;13302;48.796;11.978;2023-02-20T04:20:40;97724.09;;;10.12;37.43
25350;BME280;13302;48.796;11.978;2023-02-20T04:24:00;97722.94;;;10.13;37.37
25350;BME280;13302;48.796;11.978;2023-02-20T04:26:49;97725.69;;;10.13;37.22
25350;BME280;13302;48.796;11.978;2023-02-20T04:29:36;97728.44;;;10.13;37.45
25350;BME280;13302;48.796;11.978;2023-02-20T04:32:24;97723.28;;;10.11;37.54
25350;BME280;13302;48.796;11.978;2023-02-20T04:35:19;97727.16;;;10.10;37.50
25350;BME280;13302;48.796;11.978;2023-02-20T04:38:08;97730.75;;;10.11;37.38
25350;BME280;13302;48.796;11.978;2023-02-20T04:40:56;97729.25;;;10.13;37.54
25350;BME280;13302;48.796;11.978;2023-02-20T04:43:43;97737.09;;;10.11;37.44
25350;BME280;13302;48.796;11.978;2023-02-20T04:46:30;97733.97;;;10.13;37.48
25350;BME280;13302;48.796;11.978;2023-02-20T04:49:17;97729.63;;;10.12;37.36
25350;BME280;13302;48.796;11.978;2023-02-20T04:52:09;97729.63;;;10.12;37.43
25350;BME280;13302;48.796;11.978;2023-02-20T04:54:57;97732.03;;;10.13;37.42
25350;BME280;13302;48.796;11.978;2023-02-20T04:57:45;97730.91;;;10.14;37.32
25350;BME280;13302;48.796;11.978;2023-02-20T05:00:33;97726.19;;;10.15;37.20
25350;BME280;13302;48.796;11.978;2023-02-20T05:03:19;97730.09;;;10.14;37.32
25350;BME280;13302;48.796;11.978;2023-02-20T05:06:06;97717.75;;;10.11;37.11
25350;BME280;13302;48.796;11.978;2023-02-20T05:08:53;97730.44;;;10.12;37.03
25350;BME280;13302;48.796;11.978;2023-02-20T05:11:41;97726.03;;;10.11;37.29
25350;BME280;13302;48.796;11.978;2023-02-20T05:14:28;97719.69;;;10.11;37.40
25350;BME280;13302;48.796;11.978;2023-02-20T05:17:15;97711.41;;;10.11;37.20
25350;BME280;13302;48.796;11.978;2023-02-20T05:20:03;97727.47;;;10.09;37.25
25350;BME280;13302;48.796;11.978;2023-02-20T05:22:50;97733.50;;;10.11;36.78
25350;BME280;13302;48.796;11.978;2023-02-20T05:25:37;97733.00;;;10.09;37.12
25350;BME280;13302;48.796;11.978;2023-02-20T05:28:24;97740.50;;;10.08;37.09
25350;BME280;13302;48.796;11.978;2023-02-20T05:31:12;97744.72;;;10.06;37.26
25350;BME280;13302;48.796;11.978;2023-02-20T05:34:03;97751.06;;;10.06;37.33
25350;BME280;13302;48.796;11.978;2023-02-20T05:36:51;97742.31;;;10.04;36.94
25350;BME280;13302;48.796;11.978;2023-02-20T05:39:38;97753.81;;;10.06;37.16
25350;BME280;13302;48.796;11.978;2023-02-20T05:42:25;97756.59;;;10.06;37.19
25350;BME280;13302;48.796;11.978;2023-02-20T05:45:13;97747.47;;;10.06;37.29
25350;BME280;13302;48.796;11.978;2023-02-20T05:48:00;97758.22;;;10.07;37.22
25350;BME280;13302;48.796;11.978;2023-02-20T05:50:47;97749.59;;;10.09;36.90
25350;BME280;13302;48.796;11.978;2023-02-20T05:53:36;97746.81;;;10.09;36.93
25350;BME280;13302;48.796;11.978;2023-02-20T05:56:23;97748.81;;;10.08;36.89
25350;BME280;13302;48.796;11.978;2023-02-20T05:59:11;97759.03;;;10.08;36.86
25350;BME280;13302;48.796;11.978;2023-02-20T06:01:59;97748.81;;;10.08;36.90
25350;BME280;13302;48.796;11.978;2023-02-20T06:04:46;97754.94;;;10.05;37.19
25350;BME280;13302;48.796;11.978;2023-02-20T06:07:34;97756.91;;;10.05;36.90
25350;BME280;13302;48.796;11.978;2023-02-20T06:10:21;97745.84;;;10.05;36.97
25350;BME280;13302;48.796;11.978;2023-02-20T06:13:08;97753.00;;;10.06;36.83
25350;BME280;13302;48.796;11.978;2023-02-20T06:15:55;97751.38;;;10.05;37.16
25350;BME280;13302;48.796;11.978;2023-02-20T06:18:42;97753.97;;;10.01;36.94
25350;BME280;13302;48.796;11.978;2023-02-20T06:21:29;97756.44;;;10.03;36.95
25350;BME280;13302;48.796;11.978;2023-02-20T06:24:16;97753.66;;;10.03;37.08
25350;BME280;13302;48.796;11.978;2023-02-20T06:27:04;97756.44;;;10.03;36.79
25350;BME280;13302;48.796;11.978;2023-02-20T06:29:52;97765.84;;;10.02;37.09
25350;BME280;13302;48.796;11.978;2023-02-20T06:32:39;97763.44;;;10.00;37.13
25350;BME280;13302;48.796;11.978;2023-02-20T06:35:26;97761.44;;;10.01;36.86
25350;BME280;13302;48.796;11.978;2023-02-20T06:38:13;97762.63;;;10.00;36.95
25350;BME280;13302;48.796;11.978;2023-02-20T06:41:00;97766.50;;;9.99;37.10
25350;BME280;13302;48.796;11.978;2023-02-20T06:43:47;97776.75;;;9.98;37.01
25350;BME280;13302;48.796;11.978;2023-02-20T06:46:34;97773.97;;;9.98;37.09
25350;BME280;13302;48.796;11.978;2023-02-20T06:49:21;97777.88;;;9.97;36.85
25350;BME280;13302;48.796;11.978;2023-02-20T06:52:08;97782.56;;;9.97;37.01
25350;BME280;13302;48.796;11.978;2023-02-20T06:54:56;97781.78;;;9.96;36.78
25350;BME280;13302;48.796;11.978;2023-02-20T06:57:43;97784.06;;;9.94;36.82
25350;BME280;13302;48.796;11.978;2023-02-20T07:00:30;97778.84;;;9.93;37.09
25350;BME280;13302;48.796;11.978;2023-02-20T07:03:17;97781.59;;;9.93;36.94
25350;BME280;13302;48.796;11.978;2023-02-20T07:06:04;97789.09;;;9.92;36.97
25350;BME280;13302;48.796;11.978;2023-02-20T07:08:51;97794.63;;;9.92;37.18
25350;BME280;13302;48.796;11.978;2023-02-20T07:11:39;97782.41;;;9.93;36.93
25350;BME280;13302;48.796;11.978;2023-02-20T07:14:26;97777.72;;;9.94;36.89
25350;BME280;13302;48.796;11.978;2023-02-20T07:17:13;97795.09;;;9.94;36.89
25350;BME280;13302;48.796;11.978;2023-02-20T07:20:00;97780.00;;;9.92;36.90
25350;BME280;13302;48.796;11.978;2023-02-20T07:22:50;97783.88;;;9.91;37.08
25350;BME280;13302;48.796;11.978;2023-02-20T07:25:38;97772.03;;;9.90;37.00
25350;BME280;13302;48.796;11.978;2023-02-20T07:28:25;97770.91;;;9.91;36.95
25350;BME280;13302;48.796;11.978;2023-02-20T07:31:12;97792.19;;;9.91;36.87
25350;BME280;13302;48.796;11.978;2023-02-20T07:33:59;97787.47;;;9.91;36.70
25350;BME280;13302;48.796;11.978;2023-02-20T07:36:53;97770.09;;;9.91;36.86
25350;BME280;13302;48.796;11.978;2023-02-20T07:39:40;97771.72;;;9.92;36.99
25350;BME280;13302;48.796;11.978;2023-02-20T07:42:27;97765.84;;;9.93;36.93
25350;BME280;13302;48.796;11.978;2023-02-20T07:45:29;97775.59;;;9.91;36.65
25350;BME280;13302;48.796;11.978;2023-02-20T07:48:16;97765.38;;;9.91;37.00
25350;BME280;13302;48.796;11.978;2023-02-20T07:51:03;97768.94;;;9.92;36.93
25350;BME280;13302;48.796;11.978;2023-02-20T07:53:51;97758.38;;;9.94;36.70
25350;BME280;13302;48.796;11.978;2023-02-20T07:56:39;97758.06;;;9.95;36.51
25350;BME280;13302;48.796;11.978;2023-02-20T07:59:27;97747.00;;;9.95;36.53
25350;BME280;13302;48.796;11.978;2023-02-20T08:02:14;97752.53;;;9.95;36.44
25350;BME280;13302;48.796;11.978;2023-02-20T08:05:01;97753.34;;;9.96;36.77
25350;BME280;13302;48.796;11.978;2023-02-20T08:07:48;97749.78;;;9.95;36.78
25350;BME280;13302;48.796;11.978;2023-02-20T08:10:36;97750.09;;;9.94;36.50
25350;BME280;13302;48.796;11.978;2023-02-20T08:13:23;97762.63;;;9.91;36.60
25350;BME280;13302;48.796;11.978;2023-02-20T08:16:10;97761.78;;;9.91;36.65
25350;BME280;13302;48.796;11.978;2023-02-20T08:18:58;97766.81;;;9.89;36.54
25350;BME280;13302;48.796;11.978;2023-02-20T08:21:45;97759.19;;;9.86;36.34
25350;BME280;13302;48.796;11.978;2023-02-20T08:24:32;97748.13;;;9.86;36.57
25350;BME280;13302;48.796;11.978;2023-02-20T08:27:19;97747.66;;;9.84;36.58
25350;BME280;13302;48.796;11.978;2023-02-20T08:30:09;97728.00;;;9.85;36.32
25350;BME280;13302;48.796;11.978;2023-02-20T08:32:56;97723.63;;;9.84;36.58
25350;BME280;13302;48.796;11.978;2023-02-20T08:35:43;97725.22;;;9.85;36.60
25350;BME280;13302;48.796;11.978;2023-02-20T08:38:33;97728.00;;;9.85;36.54
25350;BME280;13302;48.796;11.978;2023-02-20T08:41:20;97724.41;;;9.85;36.37
25350;BME280;13302;48.796;11.978;2023-02-20T08:44:07;97740.66;;;9.86;36.43
25350;BME280;13302;48.796;11.978;2023-02-20T08:46:54;97747.81;;;9.87;36.44
25350;BME280;13302;48.796;11.978;2023-02-20T08:49:41;97744.25;;;9.87;36.31
25350;BME280;13302;48.796;11.978;2023-02-20T08:52:28;97743.44;;;9.86;36.15
25350;BME280;13302;48.796;11.978;2023-02-20T08:55:15;97735.47;;;9.85;36.49
25350;BME280;13302;48.796;11.978;2023-02-20T08:58:02;97722.81;;;9.84;36.18
25350;BME280;13302;48.796;11.978;2023-02-20T09:00:51;97728.00;;;9.85;36.55
25350;BME280;13302;48.796;11.978;2023-02-20T09:03:38;97709.16;;;9.87;36.44
25350;BME280;13302;48.796;11.978;2023-02-20T09:06:28;97708.03;;;9.88;36.55
25350;BME280;13302;48.796;11.978;2023-02-20T09:09:15;97702.66;;;9.92;36.29
25350;BME280;13302;48.796;11.978;2023-02-20T09:12:02;97699.56;;;9.93;36.50
25350;BME280;13302;48.796;11.978;2023-02-20T09:14:49;97720.84;;;9.93;36.28
25350;BME280;13302;48.796;11.978;2023-02-20T09:17:37;97714.34;;;9.97;36.29
25350;BME280;13302;48.796;11.978;2023-02-20T09:20:25;97715.66;;;10.00;36.19
25350;BME280;13302;48.796;11.978;2023-02-20T09:23:12;97712.53;;;10.01;36.29
25350;BME280;13302;48.796;11.978;2023-02-20T09:26:00;97700.38;;;10.02;36.21
25350;BME280;13302;48.796;11.978;2023-02-20T09:28:47;97711.56;;;10.06;36.18
25350;BME280;13302;48.796;11.978;2023-02-20T09:31:34;97708.16;;;10.09;36.18
25350;BME280;13302;48.796;11.978;2023-02-20T09:34:21;97692.53;;;10.13;36.35
25350;BME280;13302;48.796;11.978;2023-02-20T09:37:08;97681.66;;;10.17;36.60
25350;BME280;13302;48.796;11.978;2023-02-20T09:39:55;97699.69;;;10.23;36.46
25350;BME280;13302;48.796;11.978;2023-02-20T09:45:45;97683.41;;;10.30;35.96
25350;BME280;13302;48.796;11.978;2023-02-20T09:51:49;97666.19;;;10.33;35.94
25350;BME280;13302;48.796;11.978;2023-02-20T09:54:43;97665.19;;;10.37;35.76
25350;BME280;13302;48.796;11.978;2023-02-20T09:57:33;97655.88;;;10.42;35.93
25350;BME280;13302;48.796;11.978;2023-02-20T10:00:34;97667.91;;;10.46;36.21
25350;BME280;13302;48.796;11.978;2023-02-20T10:03:33;97666.59;;;10.52;35.80
25350;BME280;13302;48.796;11.978;2023-02-20T10:06:29;97666.72;;;10.55;35.65
25350;BME280;13302;48.796;11.978;2023-02-20T10:09:17;97675.69;;;10.61;35.82
25350;BME280;13302;48.796;11.978;2023-02-20T10:15:23;97661.69;;;10.66;35.62
25350;BME280;13302;48.796;11.978;2023-02-20T10:21:44;97661.97;;;10.73;35.66
25350;BME280;13302;48.796;11.978;2023-02-20T10:24:45;97658.22;;;10.78;35.63
25350;BME280;13302;48.796;11.978;2023-02-20T10:27:50;97652.81;;;10.81;35.62
25350;BME280;13302;48.796;11.978;2023-02-20T10:30:42;97652.16;;;10.84;35.37
25350;BME280;13302;48.796;11.978;2023-02-20T10:33:46;97644.00;;;10.88;35.27
25350;BME280;13302;48.796;11.978;2023-02-20T10:39:25;97643.00;;;10.92;35.31
25350;BME280;13302;48.796;11.978;2023-02-20T10:45:21;97644.75;;;10.97;35.35
25350;BME280;13302;48.796;11.978;2023-02-20T10:48:13;97658.72;;;11.00;35.00
25350;BME280;13302;48.796;11.978;2023-02-20T10:51:25;97641.31;;;11.00;34.94
25350;BME280;13302;48.796;11.978;2023-02-20T10:54:45;97643.09;;;11.04;35.19
25350;BME280;13302;48.796;11.978;2023-02-20T10:57:36;97638.84;;;11.07;35.22
25350;BME280;13302;48.796;11.978;2023-02-20T11:00:44;97622.72;;;11.09;35.15
25350;BME280;13302;48.796;11.978;2023-02-20T11:03:35;97637.50;;;11.13;34.87
25350;BME280;13302;48.796;11.978;2023-02-20T11:06:30;97614.69;;;11.16;34.78
25350;BME280;13302;48.796;11.978;2023-02-20T11:09:19;97603.41;;;11.21;34.94
25350;BME280;13302;48.796;11.978;2023-02-20T11:12:23;97609.44;;;11.23;34.53
25350;BME280;13302;48.796;11.978;2023-02-20T11:15:21;97610.03;;;11.29;34.69
25350;BME280;13302;48.796;11.978;2023-02-20T11:18:22;97607.38;;;11.32;34.72
25350;BME280;13302;48.796;11.978;2023-02-20T11:21:32;97605.56;;;11.36;34.46
25350;BME280;13302;48.796;11.978;2023-02-20T11:24:34;97585.84;;;11.38;34.40
25350;BME280;13302;48.796;11.978;2023-02-20T11:27:22;97586.34;;;11.40;34.33
25350;BME280;13302;48.796;11.978;2023-02-20T11:30:27;97578.16;;;11.43;34.04
25350;BME280;13302;48.796;11.978;2023-02-20T11:33:20;97565.25;;;11.47;34.16
25350;BME280;13302;48.796;11.978;2023-02-20T11:36:14;97562.31;;;11.53;34.07
25350;BME280;13302;48.796;11.978;2023-02-20T11:39:27;97565.66;;;11.58;33.90
25350;BME280;13302;48.796;11.978;2023-02-20T11:42:17;97563.84;;;11.62;33.77
25350;BME280;13302;48.796;11.978;2023-02-20T11:50:56;97555.13;;;11.72;33.62
25350;BME280;13302;48.796;11.978;2023-02-20T11:53:43;97551.97;;;11.74;34.03
25350;BME280;13302;48.796;11.978;2023-02-20T11:56:30;97547.03;;;11.79;33.95
25350;BME280;13302;48.796;11.978;2023-02-20T12:05:09;97528.00;;;11.90;33.59
25350;BME280;13302;48.796;11.978;2023-02-20T12:07:58;97517.41;;;11.92;33.45
25350;BME280;13302;48.796;11.978;2023-02-20T12:10:47;97521.91;;;11.96;33.51
25350;BME280;13302;48.796;11.978;2023-02-20T12:13:39;97523.66;;;12.01;33.34
25350;BME280;13302;48.796;11.978;2023-02-20T12:19:49;97507.59;;;12.07;32.77
25350;BME280;13302;48.796;11.978;2023-02-20T12:22:45;97489.81;;;12.08;33.00
25350;BME280;13302;48.796;11.978;2023-02-20T12:25:54;97499.44;;;12.10;33.11
25350;BME280;13302;48.796;11.978;2023-02-20T12:28:56;97499.66;;;12.17;32.92
25350;BME280;13302;48.796;11.978;2023-02-20T12:32:08;97490.63;;;12.20;32.93
25350;BME280;13302;48.796;11.978;2023-02-20T12:35:24;97490.41;;;12.25;32.72
25350;BME280;13302;48.796;11.978;2023-02-20T12:38:31;97496.41;;;12.27;32.64
25350;BME280;13302;48.796;11.978;2023-02-20T12:41:33;97482.91;;;12.26;32.42
25350;BME280;13302;48.796;11.978;2023-02-20T12:51:04;97454.38;;;12.37;32.50
25350;BME280;13302;48.796;11.978;2023-02-20T12:59:56;97434.97;;;12.50;32.66
25350;BME280;13302;48.796;11.978;2023-02-20T13:02:48;97438.31;;;12.55;31.90
25350;BME280;13302;48.796;11.978;2023-02-20T13:05:47;97432.88;;;12.59;32.27
25350;BME280;13302;48.796;11.978;2023-02-20T13:08:54;97443.25;;;12.62;31.92
25350;BME280;13302;48.796;11.978;2023-02-20T13:11:47;97429.50;;;12.65;32.04
25350;BME280;13302;48.796;11.978;2023-02-20T13:17:57;97423.34;;;12.72;31.90
25350;BME280;13302;48.796;11.978;2023-02-20T13:20:49;97413.97;;;12.76;31.85
25350;BME280;13302;48.796;11.978;2023-02-20T13:23:38;97409.78;;;12.82;31.77
25350;BME280;13302;48.796;11.978;2023-02-20T13:29:25;97399.69;;;12.90;31.74
25350;BME280;13302;48.796;11.978;2023-02-20T13:38:20;97373.03;;;13.01;31.45
25350;BME280;13302;48.796;11.978;2023-02-20T13:41:08;97368.41;;;13.05;31.37
25350;BME280;13302;48.796;11.978;2023-02-20T13:50:29;97372.97;;;13.13;31.30
25350;BME280;13302;48.796;11.978;2023-02-20T13:53:16;97376.22;;;13.15;31.22
25350;BME280;13302;48.796;11.978;2023-02-20T13:56:03;97365.56;;;13.17;30.91
25350;BME280;13302;48.796;11.978;2023-02-20T13:58:53;97366.34;;;13.18;30.79
25350;BME280;13302;48.796;11.978;2023-02-20T14:07:45;97366.00;;;13.19;30.58
25350;BME280;13302;48.796;11.978;2023-02-20T14:10:37;97357.69;;;13.19;30.73
25350;BME280;13302;48.796;11.978;2023-02-20T14:13:24;97351.78;;;13.21;30.88
25350;BME280;13302;48.796;11.978;2023-02-20T14:16:34;97345.06;;;13.22;30.65
25350;BME280;13302;48.796;11.978;2023-02-20T14:19:26;97343.91;;;13.23;30.74
25350;BME280;13302;48.796;11.978;2023-02-20T14:25:23;97343.75;;;13.31;30.27
25350;BME280;13302;48.796;11.978;2023-02-20T14:28:14;97335.09;;;13.33;30.58
25350;BME280;13302;48.796;11.978;2023-02-20T14:31:05;97335.50;;;13.35;30.52
25350;BME280;13302;48.796;11.978;2023-02-20T14:42:38;97325.38;;;13.43;30.02
25350;BME280;13302;48.796;11.978;2023-02-20T14:45:27;97333.38;;;13.44;30.33
25350;BME280;13302;48.796;11.978;2023-02-20T14:48:27;97323.41;;;13.43;30.26
25350;BME280;13302;48.796;11.978;2023-02-20T14:51:23;97324.59;;;13.42;30.14
25350;BME280;13302;48.796;11.978;2023-02-20T14:54:23;97318.94;;;13.39;29.76
25350;BME280;13302;48.796;11.978;2023-02-20T14:57:12;97317.69;;;13.36;29.97
25350;BME280;13302;48.796;11.978;2023-02-20T15:00:34;97318.84;;;13.35;30.05
25350;BME280;13302;48.796;11.978;2023-02-20T15:03:23;97303.00;;;13.36;30.06
25350;BME280;13302;48.796;11.978;2023-02-20T15:06:17;97307.41;;;13.37;30.23
25350;BME280;13302;48.796;11.978;2023-02-20T15:09:05;97305.88;;;13.39;29.93
25350;BME280;13302;48.796;11.978;2023-02-20T15:12:28;97307.03;;;13.38;30.04
25350;BME280;13302;48.796;11.978;2023-02-20T15:15:18;97302.75;;;13.41;29.70
25350;BME280;13302;48.796;11.978;2023-02-20T15:18:10;97315.47;;;13.42;29.80
25350;BME280;13302;48.796;11.978;2023-02-20T15:21:00;97313.13;;;13.44;29.27
25350;BME280;13302;48.796;11.978;2023-02-20T15:23:47;97294.03;;;13.42;29.79
25350;BME280;13302;48.796;11.978;2023-02-20T15:26:35;97302.38;;;13.42;29.51
25350;BME280;13302;48.796;11.978;2023-02-20T15:29:27;97294.03;;;13.42;29.71
25350;BME280;13302;48.796;11.978;2023-02-20T15:35:01;97295.31;;;13.45;29.53
25350;BME280;13302;48.796;11.978;2023-02-20T15:37:48;97288.59;;;13.46;29.25
25350;BME280;13302;48.796;11.978;2023-02-20T15:40:36;97276.66;;;13.45;29.60
25350;BME280;13302;48.796;11.978;2023-02-20T15:43:23;97271.94;;;13.46;29.60
25350;BME280;13302;48.796;11.978;2023-02-20T15:46:30;97262.78;;;13.45;29.36
25350;BME280;13302;48.796;11.978;2023-02-20T15:49:17;97265.56;;;13.45;29.56
25350;BME280;13302;48.796;11.978;2023-02-20T15:52:13;97252.47;;;13.46;29.48
25350;BME280;13302;48.796;11.978;2023-02-20T15:55:01;97266.38;;;13.46;29.26
25350;BME280;13302;48.796;11.978;2023-02-20T15:57:50;97253.66;;;13.45;29.29
25350;BME280;13302;48.796;11.978;2023-02-20T16:00:42;97252.84;;;13.44;29.30
25350;BME280;13302;48.796;11.978;2023-02-20T16:03:30;97251.69;;;13.45;29.22
25350;BME280;13302;48.796;11.978;2023-02-20T16:06:35;97248.91;;;13.45;28.91
25350;BME280;13302;48.796;11.978;2023-02-20T16:09:22;97250.50;;;13.46;28.78
25350;BME280;13302;48.796;11.978;2023-02-20T16:12:20;97254.44;;;13.45;29.29
25350;BME280;13302;48.796;11.978;2023-02-20T16:15:17;97253.66;;;13.45;28.86
25350;BME280;13302;48.796;11.978;2023-02-20T16:18:08;97254.06;;;13.47;28.53
25350;BME280;13302;48.796;11.978;2023-02-20T16:20:55;97252.47;;;13.46;28.54
25350;BME280;13302;48.796;11.978;2023-02-20T16:23:42;97260.00;;;13.45;28.42
25350;BME280;13302;48.796;11.978;2023-02-20T16:26:33;97261.59;;;13.46;28.29
25350;BME280;13302;48.796;11.978;2023-02-20T16:29:28;97269.50;;;13.44;28.08
25350;BME280;13302;48.796;11.978;2023-02-20T16:32:19;97268.69;;;13.44;27.88
25350;BME280;13302;48.796;11.978;2023-02-20T16:35:11;97262.69;;;13.42;28.02
25350;BME280;13302;48.796;11.978;2023-02-20T16:37:58;97267.44;;;13.41;27.84
25350;BME280;13302;48.796;11.978;2023-02-20T16:40:45;97269.75;;;13.39;27.84
25350;BME280;13302;48.796;11.978;2023-02-20T16:43:34;97263.78;;;13.37;27.97